Main page
METAR-TAF:

METAR-TAF

Airports :

Calais–Dunkerque Airport

Calais, France

latitude: 50-57-39N, longitude: 001-57-05E, elevation: 4 m

Current weather observation

The report was made 29 minutes ago, at 10:00 UTC
Wind 20 kt from the Southwest with gusts up to 35 kt
Temperature 10°C
Humidity 76%
Pressure 1012 hPa
Visibility 10 km or more
Broken clouds at a height of 2200 ft
Overcast at a height of 5000 ft

METAR: LFAC 201000Z AUTO 22020G35KT 9999 BKN022 OVC050 10/06 Q1012

Time: 11:29 (10:29 UTC)


TAF: missing

Weather observations and forecasts of more than 4000 airports (METAR and TAF reports).

The available stations are represented by yellow and red dots on the map.

Hover mouse over dot to see the name of the station.

Then click to see weather observations and forecasts.

To change the map : click on the green buttons with a black cross to zoom in, on the green button with a dash to zoom out, or on the green arrows for adjacent maps.


METAR-TAF: